Time;durP1;ratioP1;P1;durP2;ratioP2;P2;SDS_P1;SDS_P2;PMS_P1;PMS_P2;Temp;Humidity;BMP_temperature;BMP_pressure;BME280_temperature;BME280_humidity;BME280_pressure;Samples;Min_cycle;Max_cycle;Signal;HPM_P1;HPM_P2
2022/07/06 00:00:27;;;;;;;;;;;;;;;25.94;58.66;101183.63;5051884;28;19998;-80
2022/07/06 00:02:53;;;;;;;;;;;;;;;25.96;58.70;101183.63;5048785;28;19912;-80
2022/07/06 00:05:18;;;;;;;;;;;;;;;25.94;58.42;101188.97;5041817;28;19908;-80
2022/07/06 00:07:44;;;;;;;;;;;;;;;25.90;58.80;101183.63;5035242;28;19950;-80
2022/07/06 00:10:09;;;;;;;;;;;;;;;25.89;58.48;101181.88;5051843;28;20027;-80
2022/07/06 00:12:35;;;;;;;;;;;;;;;25.88;58.67;101174.69;5051343;28;20285;-81
2022/07/06 00:15:00;;;;;;;;;;;;;;;25.88;58.32;101180.91;5051774;28;19935;-80
2022/07/06 00:17:25;;;;;;;;;;;;;;;25.86;58.64;101187.16;5051493;28;20287;-80
2022/07/06 00:19:51;;;;;;;;;;;;;;;25.85;58.34;101178.25;5047097;28;20356;-80
2022/07/06 00:22:16;;;;;;;;;;;;;;;25.84;58.39;101173.78;5041581;28;20394;-80
2022/07/06 00:24:42;;;;;;;;;;;;;;;25.82;58.83;101172.03;5048724;28;20303;-80
2022/07/06 00:27:07;;;;;;;;;;;;;;;25.80;58.50;101169.34;5039806;28;20406;-81
2022/07/06 00:29:32;;;;;;;;;;;;;;;25.82;58.35;101166.66;5051115;28;19909;-80
2022/07/06 00:31:58;;;;;;;;;;;;;;;25.80;58.63;101172.94;5051303;28;19931;-81
2022/07/06 00:34:23;;;;;;;;;;;;;;;25.80;58.28;101167.56;5051356;28;20399;-81
2022/07/06 00:36:49;;;;;;;;;;;;;;;25.79;58.66;101170.25;5050580;28;19959;-82
2022/07/06 00:39:14;;;;;;;;;;;;;;;25.80;58.38;101159.56;5041318;28;20487;-81
2022/07/06 00:41:39;;;;;;;;;;;;;;;25.76;58.52;101154.19;5045693;28;20010;-81
2022/07/06 00:44:07;;;;;;;;;;;;;;;25.81;58.30;101157.75;5033455;28;20037;-81
2022/07/06 00:46:32;;;;;;;;;;;;;;;25.79;58.54;101152.41;5032806;28;20331;-81
2022/07/06 00:48:58;;;;;;;;;;;;;;;25.73;58.46;101149.75;5029923;28;19909;-82
2022/07/06 00:51:25;;;;;;;;;;;;;;;25.77;58.16;101143.50;5037210;28;19913;-81
2022/07/06 00:53:51;;;;;;;;;;;;;;;25.76;58.39;101151.50;5027976;28;19913;-81
2022/07/06 00:56:17;;;;;;;;;;;;;;;25.75;58.32;101155.09;5049526;28;19932;-80
2022/07/06 00:58:42;;;;;;;;;;;;;;;25.77;58.47;101155.97;5033213;28;19924;-81
2022/07/06 01:01:08;;;;;;;;;;;;;;;25.76;58.01;101148.84;5032713;28;20399;-81
2022/07/06 01:03:33;;;;;;;;;;;;;;;25.72;58.24;101149.78;5050755;28;20077;-81
2022/07/06 01:05:59;;;;;;;;;;;;;;;25.74;58.18;101147.97;5032685;28;19970;-82
2022/07/06 01:08:24;;;;;;;;;;;;;;;25.73;58.11;101138.16;5031364;28;19995;-81
2022/07/06 01:10:50;;;;;;;;;;;;;;;25.73;58.04;101140.84;5033334;28;20004;-81
2022/07/06 01:13:15;;;;;;;;;;;;;;;25.72;58.41;101139.94;5032756;28;20388;-81
2022/07/06 01:15:41;;;;;;;;;;;;;;;25.71;58.21;101142.63;5050639;28;20011;-81
2022/07/06 01:18:06;;;;;;;;;;;;;;;25.71;57.91;101131.91;5033048;28;20351;-81
2022/07/06 01:20:32;;;;;;;;;;;;;;;25.69;58.14;101131.91;5032995;28;20378;-81
2022/07/06 01:22:58;;;;;;;;;;;;;;;25.69;58.29;101134.59;5046311;28;20572;-81
2022/07/06 01:25:24;;;;;;;;;;;;;;;25.66;58.38;101131.06;5041280;28;20416;-82
2022/07/06 01:27:49;;;;;;;;;;;;;;;25.67;58.38;101120.31;5050422;28;19995;-82
2022/07/06 01:30:15;;;;;;;;;;;;;;;25.67;58.43;101128.34;5050830;28;19909;-82
2022/07/06 01:32:41;;;;;;;;;;;;;;;25.64;58.53;101133.72;5032788;28;19912;-82
2022/07/06 01:35:07;;;;;;;;;;;;;;;25.63;57.99;101131.03;5052336;28;19916;-82
2022/07/06 01:37:32;;;;;;;;;;;;;;;25.63;58.21;101136.41;5041904;28;19921;-81
2022/07/06 01:39:59;;;;;;;;;;;;;;;25.60;58.31;101135.50;5052059;28;19916;-81
2022/07/06 01:42:24;;;;;;;;;;;;;;;25.62;57.95;101131.94;5053700;28;19934;-81
2022/07/06 01:44:50;;;;;;;;;;;;;;;25.64;58.12;101135.53;5036232;28;19908;-82
2022/07/06 01:47:15;;;;;;;;;;;;;;;25.64;57.88;101130.16;5036226;28;19909;-81
2022/07/06 01:49:40;;;;;;;;;;;;;;;25.62;58.01;101127.50;5054310;28;20023;-80
2022/07/06 01:52:06;;;;;;;;;;;;;;;25.61;58.06;101125.69;5047438;28;20025;-80
2022/07/06 01:54:31;;;;;;;;;;;;;;;25.58;58.30;101129.25;5049946;28;19922;-80
2022/07/06 01:56:57;;;;;;;;;;;;;;;25.53;58.49;101130.19;5034529;28;20356;-80
2022/07/06 01:59:24;;;;;;;;;;;;;;;25.56;58.19;101128.38;5036307;28;19913;-80
2022/07/06 02:01:50;;;;;;;;;;;;;;;25.58;58.33;101133.72;5037624;28;19909;-80
2022/07/06 02:04:15;;;;;;;;;;;;;;;25.58;58.14;101134.63;5041266;28;20397;-81
2022/07/06 02:06:41;;;;;;;;;;;;;;;25.59;58.22;101135.53;5031439;28;20467;-80
2022/07/06 02:09:06;;;;;;;;;;;;;;;25.58;58.30;101129.25;5052039;28;19932;-80
2022/07/06 02:11:31;;;;;;;;;;;;;;;25.56;58.27;101125.72;5049716;28;20445;-80
2022/07/06 02:13:57;;;;;;;;;;;;;;;25.58;58.15;101139.97;5049936;28;19913;-80
2022/07/06 02:16:22;;;;;;;;;;;;;;;25.56;58.19;101131.06;5053502;28;19986;-79
2022/07/06 02:18:48;;;;;;;;;;;;;;;25.55;58.23;101133.75;5035356;28;20341;-79
2022/07/06 02:21:13;;;;;;;;;;;;;;;25.54;58.08;101132.84;5053728;28;19978;-80
2022/07/06 02:23:39;;;;;;;;;;;;;;;25.56;57.92;101130.16;5053755;28;19931;-81
2022/07/06 02:26:04;;;;;;;;;;;;;;;25.54;58.08;101130.16;5053274;28;19995;-81
2022/07/06 02:28:29;;;;;;;;;;;;;;;25.53;58.04;101127.53;5053203;28;19916;-82
2022/07/06 02:30:55;;;;;;;;;;;;;;;25.54;58.03;101126.59;5053132;28;19991;-81
2022/07/06 02:33:20;;;;;;;;;;;;;;;25.55;57.99;101128.41;5053167;28;19913;-82
2022/07/06 02:35:46;;;;;;;;;;;;;;;25.52;58.34;101120.38;5053100;28;19909;-82
2022/07/06 02:38:11;;;;;;;;;;;;;;;25.51;57.95;101126.63;5033251;28;19921;-82
2022/07/06 02:40:38;;;;;;;;;;;;;;;25.50;58.03;101127.50;5044978;28;19952;-81
2022/07/06 02:43:03;;;;;;;;;;;;;;;25.51;58.29;101129.31;5052933;28;20000;-81
2022/07/06 02:45:29;;;;;;;;;;;;;;;25.50;57.80;101119.47;5052911;28;20407;-81
2022/07/06 02:47:56;;;;;;;;;;;;;;;25.49;58.20;101118.59;5038620;28;20351;-81
2022/07/06 02:50:21;;;;;;;;;;;;;;;25.42;58.01;101116.84;5052548;28;20011;-81
2022/07/06 02:52:46;;;;;;;;;;;;;;;25.44;58.08;101116.81;5048785;28;20016;-82
2022/07/06 02:55:12;;;;;;;;;;;;;;;25.44;57.83;101114.16;5052346;28;20007;-81
2022/07/06 02:57:37;;;;;;;;;;;;;;;25.43;57.99;101118.59;5052575;28;19908;-82
2022/07/06 03:00:03;;;;;;;;;;;;;;;25.44;58.00;101116.81;5052695;28;20366;-81
2022/07/06 03:02:28;;;;;;;;;;;;;;;25.45;57.73;101122.16;5052860;28;20375;-82
2022/07/06 03:04:54;;;;;;;;;;;;;;;25.44;57.92;101120.38;5052278;28;19908;-82
2022/07/06 03:07:19;;;;;;;;;;;;;;;25.42;57.90;101116.84;5052532;28;20276;-82
2022/07/06 03:09:45;;;;;;;;;;;;;;;25.43;57.84;101110.59;5048997;28;20357;-81
2022/07/06 03:12:10;;;;;;;;;;;;;;;25.44;58.00;101111.47;5052486;28;19909;-81
2022/07/06 03:14:36;;;;;;;;;;;;;;;25.43;57.98;101112.38;5052252;28;20383;-81
2022/07/06 03:17:01;;;;;;;;;;;;;;;25.40;58.23;101110.59;5052581;28;19912;-81
2022/07/06 03:19:27;;;;;;;;;;;;;;;25.42;58.16;101114.16;5020275;28;20423;-81
2022/07/06 03:21:52;;;;;;;;;;;;;;;25.39;57.93;101112.38;5052508;28;19916;-82
2022/07/06 03:24:18;;;;;;;;;;;;;;;25.41;58.13;101119.50;5051967;28;20047;-81
2022/07/06 03:26:43;;;;;;;;;;;;;;;25.38;57.89;101113.28;5052385;28;20375;-81
2022/07/06 03:29:09;;;;;;;;;;;;;;;25.36;57.90;101109.72;5038023;28;20313;-81
2022/07/06 03:31:35;;;;;;;;;;;;;;;25.36;58.08;101112.38;5052255;28;20303;-81
2022/07/06 03:34:00;;;;;;;;;;;;;;;25.41;58.05;101111.50;5051985;28;20058;-81
2022/07/06 03:36:25;;;;;;;;;;;;;;;25.38;58.39;101115.94;5014949;28;19963;-81
2022/07/06 03:38:51;;;;;;;;;;;;;;;25.34;57.90;101116.84;5042042;28;19982;-81
2022/07/06 03:41:16;;;;;;;;;;;;;;;25.35;58.35;101113.25;5034006;28;20346;-80
2022/07/06 03:43:42;;;;;;;;;;;;;;;25.33;57.99;101115.03;5052075;28;19991;-80
2022/07/06 03:46:07;;;;;;;;;;;;;;;25.29;58.01;101115.06;5051632;28;19951;-81
2022/07/06 03:48:33;;;;;;;;;;;;;;;25.33;57.98;101120.41;5052174;28;20307;-80
2022/07/06 03:50:58;;;;;;;;;;;;;;;25.31;58.36;101126.63;5031499;28;19909;-80
2022/07/06 03:53:23;;;;;;;;;;;;;;;25.27;58.36;101124.84;5047703;28;20311;-80
2022/07/06 03:58:33;;;;;;;;;;;;;;;25.27;58.19;101123.06;5050916;28;19931;-80
2022/07/06 04:00:58;;;;;;;;;;;;;;;25.18;58.35;101131.97;5030641;28;20299;-80
2022/07/06 04:03:24;;;;;;;;;;;;;;;25.19;58.52;101136.44;5033687;28;19908;-81
2022/07/06 04:05:49;;;;;;;;;;;;;;;25.23;58.27;101134.69;5051596;28;20006;-81
2022/07/06 04:08:14;;;;;;;;;;;;;;;25.27;58.25;101143.56;5051385;28;20391;-81
2022/07/06 04:10:40;;;;;;;;;;;;;;;25.24;58.38;101131.09;5033783;28;20345;-80
2022/07/06 04:13:05;;;;;;;;;;;;;;;25.26;58.07;101123.09;5048692;28;20383;-81
2022/07/06 04:15:31;;;;;;;;;;;;;;;25.23;58.42;101129.34;5050699;28;19930;-80
2022/07/06 04:17:56;;;;;;;;;;;;;;;25.24;58.25;101133.78;5051645;28;20344;-81
2022/07/06 04:20:22;;;;;;;;;;;;;;;25.20;58.42;101132.00;5033730;28;20308;-81
2022/07/06 04:22:48;;;;;;;;;;;;;;;25.18;58.29;101125.72;5051302;28;19910;-81
2022/07/06 04:25:13;;;;;;;;;;;;;;;25.17;58.37;101129.31;5006027;28;19998;-81
2022/07/06 04:27:39;;;;;;;;;;;;;;;25.21;58.49;101114.16;5048323;28;19909;-80
2022/07/06 04:30:05;;;;;;;;;;;;;;;25.19;58.44;101120.38;5024758;28;19909;-81
2022/07/06 04:32:31;;;;;;;;;;;;;;;25.22;58.38;101126.66;5042153;28;19913;-80
2022/07/06 04:34:56;;;;;;;;;;;;;;;25.20;58.23;101118.63;5037407;28;20126;-80
2022/07/06 04:37:22;;;;;;;;;;;;;;;25.19;58.47;101115.03;5038301;28;19921;-80
2022/07/06 04:39:47;;;;;;;;;;;;;;;25.18;58.42;101115.91;5049917;28;20442;-80
2022/07/06 04:42:13;;;;;;;;;;;;;;;25.16;58.42;101109.69;5050944;28;19908;-81
2022/07/06 04:44:38;;;;;;;;;;;;;;;25.16;58.54;101116.81;5050896;28;19909;-81
2022/07/06 04:47:03;;;;;;;;;;;;;;;25.14;58.54;101116.81;5043232;28;20396;-81
2022/07/06 04:49:29;;;;;;;;;;;;;;;25.14;58.41;101114.13;5050487;28;20296;-81
2022/07/06 04:51:54;;;;;;;;;;;;;;;25.14;58.44;101116.81;5045898;28;19935;-81
2022/07/06 04:54:20;;;;;;;;;;;;;;;25.11;58.91;101115.94;5022944;28;20402;-81
2022/07/06 04:56:46;;;;;;;;;;;;;;;25.06;58.87;101118.63;5047445;28;20317;-82
2022/07/06 04:59:12;;;;;;;;;;;;;;;25.12;58.78;101115.03;5050656;28;19920;-81
2022/07/06 05:01:46;;;;;;;;;;;;;;;25.12;58.69;101118.59;5033092;28;19909;-82
2022/07/06 05:04:12;;;;;;;;;;;;;;;25.08;58.96;101114.16;5014659;28;19913;-80
2022/07/06 05:06:37;;;;;;;;;;;;;;;25.10;59.12;101112.34;5033285;28;20043;-80
2022/07/06 05:09:03;;;;;;;;;;;;;;;25.10;59.05;101114.16;5050771;28;19908;-80
2022/07/06 05:11:28;;;;;;;;;;;;;;;25.08;59.12;101107.91;5039659;28;19931;-81
2022/07/06 05:13:59;;;;;;;;;;;;;;;25.11;59.12;101113.28;5057524;28;19916;-81
2022/07/06 05:16:24;;;;;;;;;;;;;;;25.06;59.16;101115.03;5037419;28;19909;-81
2022/07/06 05:18:50;;;;;;;;;;;;;;;25.08;59.48;101111.50;5047737;28;19954;-80
2022/07/06 05:21:15;;;;;;;;;;;;;;;25.11;59.08;101113.28;5041072;28;19913;-83
2022/07/06 05:23:40;;;;;;;;;;;;;;;25.13;59.10;101116.84;5025104;28;20347;-82
2022/07/06 05:26:06;;;;;;;;;;;;;;;25.07;59.37;101117.72;5035638;28;19913;-86
2022/07/06 05:28:31;;;;;;;;;;;;;;;25.03;59.65;101107.03;5029470;28;20320;-83
2022/07/06 05:30:57;;;;;;;;;;;;;;;25.01;59.87;101109.69;5034653;28;19916;-83
2022/07/06 05:33:22;;;;;;;;;;;;;;;25.08;59.77;101103.47;5019254;28;19928;-83
2022/07/06 05:35:48;;;;;;;;;;;;;;;25.09;59.67;101099.91;5034544;28;20455;-82
2022/07/06 05:38:13;;;;;;;;;;;;;;;25.16;59.48;101111.47;5021927;28;19917;-81
2022/07/06 05:40:39;;;;;;;;;;;;;;;25.15;59.53;101107.03;5018872;28;19908;-83
2022/07/06 05:43:04;;;;;;;;;;;;;;;25.16;59.57;101104.34;5018120;28;19932;-82
2022/07/06 05:45:30;;;;;;;;;;;;;;;25.19;59.42;101103.47;5038963;28;19916;-83
2022/07/06 05:50:39;;;;;;;;;;;;;;;25.21;59.69;101103.47;5053865;28;19959;-84
2022/07/06 05:53:05;;;;;;;;;;;;;;;25.18;60.22;101101.66;5050138;28;19913;-83
2022/07/06 05:55:30;;;;;;;;;;;;;;;25.20;59.99;101094.56;5033676;28;19913;-82
2022/07/06 05:57:56;;;;;;;;;;;;;;;25.18;60.67;101099.00;5052811;28;19909;-81
2022/07/06 06:00:23;;;;;;;;;;;;;;;25.26;60.20;101107.94;5031557;28;20004;-83
2022/07/06 06:02:49;;;;;;;;;;;;;;;25.25;60.67;101105.25;5031791;28;20011;-82
2022/07/06 06:05:15;;;;;;;;;;;;;;;25.26;60.51;101099.03;5050347;28;20495;-83
2022/07/06 06:07:40;;;;;;;;;;;;;;;25.29;60.39;101096.34;5055264;28;19915;-84
2022/07/06 06:10:07;;;;;;;;;;;;;;;25.29;60.33;101102.56;5053842;28;20319;-83
2022/07/06 06:12:32;;;;;;;;;;;;;;;25.28;60.65;101095.47;5035397;28;20427;-81
2022/07/06 06:14:58;;;;;;;;;;;;;;;25.19;61.92;101091.00;5035648;28;19916;-84
2022/07/06 06:17:23;;;;;;;;;;;;;;;25.09;61.17;101097.22;5021979;28;19916;-82
2022/07/06 06:19:49;;;;;;;;;;;;;;;25.14;61.01;101090.09;5051821;28;19977;-85
2022/07/06 06:22:14;;;;;;;;;;;;;;;25.16;60.55;101093.66;5016868;28;20358;-84
2022/07/06 06:24:40;;;;;;;;;;;;;;;25.20;60.98;101099.94;5033666;28;19913;-84
2022/07/06 06:27:05;;;;;;;;;;;;;;;25.19;60.65;101091.00;5038655;28;20437;-84
2022/07/06 06:29:31;;;;;;;;;;;;;;;25.16;60.64;101088.31;5056428;28;19909;-83
2022/07/06 06:31:56;;;;;;;;;;;;;;;25.14;60.52;101097.22;5053511;28;19915;-83
2022/07/06 06:34:21;;;;;;;;;;;;;;;25.18;60.49;101094.53;5036220;28;20168;-84
2022/07/06 06:36:47;;;;;;;;;;;;;;;25.21;60.58;101090.13;5044461;28;19909;-82
2022/07/06 06:39:12;;;;;;;;;;;;;;;25.18;60.66;101093.66;5052681;28;19925;-83
2022/07/06 06:41:38;;;;;;;;;;;;;;;25.23;60.44;101086.56;5034339;28;19970;-84
2022/07/06 06:44:03;;;;;;;;;;;;;;;25.25;60.23;101095.47;5050986;28;20007;-83
2022/07/06 06:46:29;;;;;;;;;;;;;;;25.22;60.46;101089.25;5014986;28;20300;-83
2022/07/06 06:48:54;;;;;;;;;;;;;;;25.22;60.56;101097.25;5036020;28;19913;-83
2022/07/06 06:51:20;;;;;;;;;;;;;;;25.25;60.37;101095.47;5036709;28;19959;-83
2022/07/06 06:53:50;;;;;;;;;;;;;;;25.26;60.31;101097.25;5018869;28;20362;-83
2022/07/06 06:56:15;;;;;;;;;;;;;;;25.28;60.38;101095.47;5024463;28;20440;-84
2022/07/06 06:58:41;;;;;;;;;;;;;;;25.30;60.39;101098.16;5032949;28;19999;-83
2022/07/06 07:01:06;;;;;;;;;;;;;;;25.30;60.19;101096.34;5017505;28;19916;-84
2022/07/06 07:03:31;;;;;;;;;;;;;;;25.31;60.19;101099.91;5051775;28;20361;-84
2022/07/06 07:05:58;;;;;;;;;;;;;;;25.31;60.30;101089.22;5034503;28;20010;-83
2022/07/06 07:08:26;;;;;;;;;;;;;;;25.30;60.33;101095.47;5032607;28;19916;-83
2022/07/06 07:10:52;;;;;;;;;;;;;;;25.33;60.29;101082.97;5052362;28;19915;-83
2022/07/06 07:13:17;;;;;;;;;;;;;;;25.35;60.13;101082.97;5051791;28;20019;-83
2022/07/06 07:15:43;;;;;;;;;;;;;;;25.37;60.13;101081.19;5021223;28;19916;-83
2022/07/06 07:18:08;;;;;;;;;;;;;;;25.33;60.19;101088.31;5049185;28;20439;-83
2022/07/06 07:20:33;;;;;;;;;;;;;;;25.30;60.42;101085.66;5020356;28;19909;-83
2022/07/06 07:22:59;;;;;;;;;;;;;;;25.31;60.31;101089.22;5036629;28;19982;-84
2022/07/06 07:25:25;;;;;;;;;;;;;;;25.35;60.28;101091.00;5041708;28;19915;-84
2022/07/06 07:27:50;;;;;;;;;;;;;;;25.38;60.02;101093.69;5034167;28;20011;-84
2022/07/06 07:30:16;;;;;;;;;;;;;;;25.37;60.33;101097.22;5034439;28;20417;-84
2022/07/06 07:32:41;;;;;;;;;;;;;;;25.36;60.47;101104.38;5019434;28;20003;-84
2022/07/06 07:35:07;;;;;;;;;;;;;;;25.35;60.23;101102.56;5015895;28;19975;-84
2022/07/06 07:37:32;;;;;;;;;;;;;;;25.35;60.34;101101.69;5033544;28;19932;-84
2022/07/06 07:39:58;;;;;;;;;;;;;;;25.34;60.32;101103.47;5052220;28;19912;-84
2022/07/06 07:42:23;;;;;;;;;;;;;;;25.39;60.13;101109.69;5058505;28;19919;-85
2022/07/06 07:44:49;;;;;;;;;;;;;;;25.42;60.33;101113.25;5026779;28;20368;-85
2022/07/06 07:47:14;;;;;;;;;;;;;;;25.43;60.20;101109.72;5050785;28;19912;-84
2022/07/06 07:49:40;;;;;;;;;;;;;;;25.41;60.62;101112.38;5034092;28;19909;-84
2022/07/06 07:52:05;;;;;;;;;;;;;;;25.39;60.37;101111.47;5042769;28;19913;-84
2022/07/06 07:54:31;;;;;;;;;;;;;;;25.36;60.67;101112.38;5051333;28;19986;-83
2022/07/06 07:56:56;;;;;;;;;;;;;;;25.41;60.58;101116.84;5040216;28;19908;-84
2022/07/06 07:59:22;;;;;;;;;;;;;;;25.38;60.77;101110.59;5055566;28;19909;-83
2022/07/06 08:01:47;;;;;;;;;;;;;;;25.34;60.87;101115.97;5030158;28;20277;-84
2022/07/06 08:04:13;;;;;;;;;;;;;;;25.41;60.81;101116.84;5033811;28;19912;-83
2022/07/06 08:06:38;;;;;;;;;;;;;;;25.44;60.68;101119.50;5030455;28;20299;-83
2022/07/06 08:09:07;;;;;;;;;;;;;;;25.46;60.35;101125.72;5037763;28;19920;-84
2022/07/06 08:11:32;;;;;;;;;;;;;;;25.44;60.58;101125.72;5035149;28;19909;-84
2022/07/06 08:13:58;;;;;;;;;;;;;;;25.44;60.71;101119.50;5050819;28;19920;-84
2022/07/06 08:16:23;;;;;;;;;;;;;;;25.42;60.83;101123.94;5032220;28;19916;-84
2022/07/06 08:18:49;;;;;;;;;;;;;;;25.43;60.47;101123.06;5031661;28;19909;-84
2022/07/06 08:21:14;;;;;;;;;;;;;;;25.44;60.62;101125.72;5028201;28;19974;-84
2022/07/06 08:23:40;;;;;;;;;;;;;;;25.44;60.38;101130.19;5032954;28;19966;-83
2022/07/06 08:26:05;;;;;;;;;;;;;;;25.47;60.62;101130.19;5049999;28;20350;-83
2022/07/06 08:28:31;;;;;;;;;;;;;;;25.47;60.63;101131.09;5033459;28;19916;-83
2022/07/06 08:30:56;;;;;;;;;;;;;;;25.48;60.35;101129.28;5031417;28;20463;-83
2022/07/06 08:33:22;;;;;;;;;;;;;;;25.42;60.83;101126.63;5048394;28;20021;-83
2022/07/06 08:35:47;;;;;;;;;;;;;;;25.49;60.55;101125.75;5048521;28;19916;-83
2022/07/06 08:38:13;;;;;;;;;;;;;;;25.46;60.83;101123.06;5031804;28;19921;-83
2022/07/06 08:40:38;;;;;;;;;;;;;;;25.44;60.61;101116.81;5049449;28;20346;-83
2022/07/06 08:43:04;;;;;;;;;;;;;;;25.44;60.60;101120.38;5032249;28;20621;-83
2022/07/06 08:45:30;;;;;;;;;;;;;;;25.43;60.58;101118.59;5032194;28;19908;-83
2022/07/06 08:47:55;;;;;;;;;;;;;;;25.46;60.66;101117.72;5059186;28;19944;-83
2022/07/06 08:50:21;;;;;;;;;;;;;;;25.46;60.51;101112.34;5040200;28;19908;-82
2022/07/06 08:52:49;;;;;;;;;;;;;;;25.50;60.41;101115.03;5051644;28;20032;-83
2022/07/06 08:55:16;;;;;;;;;;;;;;;25.48;60.60;101116.81;5036589;28;20332;-83
2022/07/06 08:57:41;;;;;;;;;;;;;;;25.48;60.85;101118.59;5036391;28;20307;-83
2022/07/06 09:00:08;;;;;;;;;;;;;;;25.45;60.73;101110.59;5054399;28;20007;-83
2022/07/06 09:02:33;;;;;;;;;;;;;;;25.48;60.83;101111.47;5054393;28;20437;-82
2022/07/06 09:04:58;;;;;;;;;;;;;;;25.46;60.70;101115.91;5045054;28;19909;-83
2022/07/06 09:07:26;;;;;;;;;;;;;;;25.48;60.93;101105.22;5036917;28;20008;-82
2022/07/06 09:09:51;;;;;;;;;;;;;;;25.46;60.90;101099.00;5036760;28;19916;-84
2022/07/06 09:12:16;;;;;;;;;;;;;;;25.49;60.81;101104.34;5054608;28;19908;-83
2022/07/06 09:14:42;;;;;;;;;;;;;;;25.50;60.57;101108.78;5054434;28;20367;-82
2022/07/06 09:17:07;;;;;;;;;;;;;;;25.50;60.70;101101.66;5054495;28;19908;-82
2022/07/06 09:19:34;;;;;;;;;;;;;;;25.46;60.88;101102.53;5054542;28;20348;-83
2022/07/06 09:22:00;;;;;;;;;;;;;;;25.47;60.93;101100.78;5054427;28;19916;-82
2022/07/06 09:24:26;;;;;;;;;;;;;;;25.48;60.92;101100.75;5054448;28;19915;-83
2022/07/06 09:26:54;;;;;;;;;;;;;;;25.53;61.03;101096.31;5054518;28;20403;-83
2022/07/06 09:29:24;;;;;;;;;;;;;;;25.53;61.05;101095.44;5053951;28;19931;-83
2022/07/06 09:31:57;;;;;;;;;;;;;;;25.50;61.15;101100.75;5034429;28;19913;-83
2022/07/06 09:34:23;;;;;;;;;;;;;;;25.51;61.16;101102.56;5052071;28;19975;-83
2022/07/06 09:36:49;;;;;;;;;;;;;;;25.54;61.04;101095.41;5050570;28;20003;-84
2022/07/06 09:39:15;;;;;;;;;;;;;;;25.57;61.12;101091.84;5018959;28;19917;-83
2022/07/06 09:41:41;;;;;;;;;;;;;;;25.57;60.88;101091.84;5015917;28;20146;-82
2022/07/06 09:44:09;;;;;;;;;;;;;;;25.57;61.33;101089.19;5015180;28;20411;-82
2022/07/06 09:46:41;;;;;;;;;;;;;;;25.57;61.04;101084.72;5014912;28;19909;-84
2022/07/06 09:49:10;;;;;;;;;;;;;;;25.60;60.98;101084.69;5016000;28;19944;-84
2022/07/06 09:51:35;;;;;;;;;;;;;;;25.61;60.90;101090.91;5012317;28;19992;-83
2022/07/06 09:54:03;;;;;;;;;;;;;;;25.59;61.00;101084.72;5026147;28;20015;-83
2022/07/06 09:56:38;;;;;;;;;;;;;;;25.63;61.02;101086.47;5029511;28;19963;-83
2022/07/06 09:59:32;;;;;;;;;;;;;;;25.58;61.17;101086.47;5016095;28;20379;-83
2022/07/06 10:01:59;;;;;;;;;;;;;;;25.64;61.07;101085.56;5016038;28;19909;-83
2022/07/06 10:04:25;;;;;;;;;;;;;;;25.64;61.11;101085.56;4999887;28;19916;-83
2022/07/06 10:06:50;;;;;;;;;;;;;;;25.68;61.16;101086.47;5015995;28;19909;-82
2022/07/06 10:09:16;;;;;;;;;;;;;;;25.67;60.85;101080.19;5015429;28;19912;-85
2022/07/06 10:11:58;;;;;;;;;;;;;;;25.67;61.26;101082.00;4999158;28;19909;-83
2022/07/06 10:14:24;;;;;;;;;;;;;;;25.64;61.19;101079.34;5033419;28;20007;-83
2022/07/06 10:16:52;;;;;;;;;;;;;;;25.66;61.10;101082.91;5033329;28;19913;-83
2022/07/06 10:19:18;;;;;;;;;;;;;;;25.67;61.14;101077.53;5032653;28;20008;-83
2022/07/06 10:21:44;;;;;;;;;;;;;;;25.73;61.28;101079.31;5033212;28;20360;-83
2022/07/06 10:24:15;;;;;;;;;;;;;;;25.71;60.99;101079.31;5019380;28;20388;-83
2022/07/06 10:26:41;;;;;;;;;;;;;;;25.74;61.22;101076.63;5024426;28;19916;-83
2022/07/06 10:29:07;;;;;;;;;;;;;;;25.75;61.01;101074.84;5009325;28;19909;-84
2022/07/06 10:31:33;;;;;;;;;;;;;;;25.73;61.31;101072.16;5012236;28;20344;-84
2022/07/06 10:34:00;;;;;;;;;;;;;;;25.72;61.38;101073.06;5008521;28;19913;-84
2022/07/06 10:36:25;;;;;;;;;;;;;;;25.72;61.26;101070.41;4998462;28;19944;-83
2022/07/06 10:38:51;;;;;;;;;;;;;;;25.77;61.10;101067.69;5015584;28;19971;-83
2022/07/06 10:41:17;;;;;;;;;;;;;;;25.78;61.10;101074.81;5017805;28;19962;-83
2022/07/06 10:43:45;;;;;;;;;;;;;;;25.77;61.04;101065.03;5025980;28;19963;-84
2022/07/06 10:46:11;;;;;;;;;;;;;;;25.79;61.35;101068.59;5017669;28;19908;-84
2022/07/06 10:48:40;;;;;;;;;;;;;;;25.77;61.13;101060.56;5052527;28;19915;-85
2022/07/06 10:51:06;;;;;;;;;;;;;;;25.78;61.18;101057.00;5031023;28;19915;-84
2022/07/06 10:53:33;;;;;;;;;;;;;;;25.77;61.20;101059.66;5031542;28;19912;-84
2022/07/06 10:55:59;;;;;;;;;;;;;;;25.79;61.16;101058.75;5017902;28;19909;-85
2022/07/06 10:58:43;;;;;;;;;;;;;;;25.78;61.28;101048.06;5052683;28;19915;-83
2022/07/06 11:01:09;;;;;;;;;;;;;;;25.79;61.18;101058.75;5063149;28;19986;-83
2022/07/06 11:03:41;;;;;;;;;;;;;;;25.79;61.17;101048.06;5034807;28;19915;-83
2022/07/06 11:06:12;;;;;;;;;;;;;;;25.85;61.18;101044.47;5045124;28;20299;-83
2022/07/06 11:08:48;;;;;;;;;;;;;;;25.85;61.04;101039.13;5052413;28;20406;-84
2022/07/06 11:11:16;;;;;;;;;;;;;;;25.84;61.49;101048.03;5031107;28;20383;-84
2022/07/06 11:13:42;;;;;;;;;;;;;;;25.87;61.32;101044.47;5033670;28;20346;-83
2022/07/06 11:16:11;;;;;;;;;;;;;;;25.84;61.12;101042.69;5010834;28;19909;-83
2022/07/06 11:18:59;;;;;;;;;;;;;;;25.86;60.92;101046.25;5034155;28;19950;-82
2022/07/06 11:21:34;;;;;;;;;;;;;;;25.87;61.05;101040.00;5028295;28;19909;-82
2022/07/06 11:23:59;;;;;;;;;;;;;;;25.89;61.20;101038.25;5030005;28;19913;-82
2022/07/06 11:26:25;;;;;;;;;;;;;;;25.85;61.33;101039.13;5038684;28;19916;-84
2022/07/06 11:28:51;;;;;;;;;;;;;;;25.89;61.19;101032.03;5051854;28;19913;-84
2022/07/06 11:31:16;;;;;;;;;;;;;;;25.92;61.05;101035.53;5011515;28;19917;-84
2022/07/06 11:33:44;;;;;;;;;;;;;;;25.88;61.34;101038.22;5023237;28;20364;-84
2022/07/06 11:36:15;;;;;;;;;;;;;;;25.89;61.24;101034.69;5028549;28;20372;-84
2022/07/06 11:38:40;;;;;;;;;;;;;;;25.95;61.07;101031.97;5016562;28;20366;-82
2022/07/06 11:41:11;;;;;;;;;;;;;;;25.94;61.30;101031.09;5029129;28;20561;-83
2022/07/06 11:43:37;;;;;;;;;;;;;;;25.98;60.93;101026.59;5031809;28;19955;-84
2022/07/06 11:46:03;;;;;;;;;;;;;;;26.01;60.86;101021.22;5010051;28;20350;-81
2022/07/06 11:48:28;;;;;;;;;;;;;;;25.94;61.06;101016.81;5031483;28;20438;-84
2022/07/06 11:51:01;;;;;;;;;;;;;;;25.99;60.87;101018.59;5042903;28;20408;-81
2022/07/06 11:53:26;;;;;;;;;;;;;;;25.98;61.01;101021.25;5050501;28;19916;-84
2022/07/06 11:55:52;;;;;;;;;;;;;;;26.00;61.03;101023.03;5033442;28;20384;-84
2022/07/06 11:58:24;;;;;;;;;;;;;;;25.99;60.76;101009.63;5016897;28;20560;-84
2022/07/06 12:01:08;;;;;;;;;;;;;;;26.01;61.16;101010.53;5043963;28;19913;-84
2022/07/06 12:03:34;;;;;;;;;;;;;;;26.05;60.84;101003.38;5049999;28;19952;-84
2022/07/06 12:06:07;;;;;;;;;;;;;;;26.08;60.92;101001.56;5032389;28;20358;-84
2022/07/06 12:08:40;;;;;;;;;;;;;;;26.06;60.86;100999.81;5025764;28;19913;-84
2022/07/06 12:11:11;;;;;;;;;;;;;;;26.06;60.93;101000.69;5048500;28;19959;-83
2022/07/06 12:13:45;;;;;;;;;;;;;;;26.06;60.77;101003.38;5032808;28;19912;-83
2022/07/06 12:16:11;;;;;;;;;;;;;;;26.06;61.01;101006.06;5049733;28;19991;-83
2022/07/06 12:18:37;;;;;;;;;;;;;;;26.07;61.04;101004.25;5049926;28;19917;-83
2022/07/06 12:21:03;;;;;;;;;;;;;;;26.06;60.79;100999.81;5050008;28;19912;-82
2022/07/06 12:23:37;;;;;;;;;;;;;;;26.11;60.87;101006.00;5031673;28;19917;-84
2022/07/06 12:26:03;;;;;;;;;;;;;;;26.13;60.61;100999.75;5032261;28;19919;-83
2022/07/06 12:28:28;;;;;;;;;;;;;;;26.11;61.02;100995.31;5049415;28;19951;-84
2022/07/06 12:30:53;;;;;;;;;;;;;;;26.10;60.83;100991.75;5046364;28;20417;-83
2022/07/06 12:33:19;;;;;;;;;;;;;;;26.14;60.71;100987.25;5050183;28;20377;-83
2022/07/06 12:35:44;;;;;;;;;;;;;;;26.16;60.66;100986.34;5032761;28;19931;-83